Port Henry, New York
Current Conditions -  °F | °C
As of 5:15 AM on Thursday 23 Oct 2014 (Local Time) from K6B0 Reporting Station
Light Rain Light Rain  
Wind Chill: 38°   Ceiling: 2000
Heat Index: 43°   Visibility: 10mi
Dew Point: 40°   Wind: 9mph
Humidity: 88%   Direction: 340°NNW
Pressure: 29.95"   Gusts: NA
Location:  44.05°N, 73.46°W
Report Text: K6B0 230915Z AUTO 34008KT 10SM -RA OVC020 06/04 A2995 RMK AO2 T00610043
Loading
Personal Weather Stations






























Interactive Weather Map
Tropical Storm Tracking
New forecast layout! Learn more

10-Day Weather Forecast

Advertisements
Track Severe Weather on mobile